createdAt,value
2023-05-12T00:01:14.242Z,100725.84
2023-05-12T00:03:41.220Z,100754.53
2023-05-12T00:06:07.957Z,100734.41
2023-05-12T00:08:34.369Z,100692.47
2023-05-12T00:11:01.395Z,100750.88
2023-05-12T00:13:28.961Z,100763.81
2023-05-12T00:15:58.584Z,100685.72
2023-05-12T00:18:26.276Z,100745.72
2023-05-12T00:20:55.538Z,100687.31
2023-05-12T00:23:22.531Z,100668.66
2023-05-12T00:25:49.598Z,100748.28
2023-05-12T00:28:16.733Z,100722.41
2023-05-12T00:30:43.103Z,100682.16
2023-05-12T00:33:09.557Z,100690.88
2023-05-12T00:35:35.870Z,100728.31
2023-05-12T00:38:02.202Z,100706.06
2023-05-12T00:40:28.700Z,100713.16
2023-05-12T00:42:55.019Z,100729.56
2023-05-12T00:45:21.837Z,100680.78
2023-05-12T00:47:49.388Z,100684.09
2023-05-12T00:50:17.367Z,100668.66
2023-05-12T00:52:44.065Z,100665.97
2023-05-12T00:55:10.568Z,100670.25
2023-05-12T00:57:37.128Z,100668.34
2023-05-12T01:00:04.921Z,100733.06
2023-05-12T01:02:31.418Z,100720.72
2023-05-12T01:04:58.127Z,100694.31
2023-05-12T01:07:26.046Z,100654.78
2023-05-12T01:09:56.512Z,100724.72
2023-05-12T01:12:23.661Z,100662.47
2023-05-12T01:14:52.173Z,100709.63
2023-05-12T01:17:33.352Z,100725.78
2023-05-12T01:20:02.184Z,100724.97
2023-05-12T01:22:31.512Z,100672.06
2023-05-12T01:25:01.713Z,100727.13
2023-05-12T01:27:29.275Z,100723.84
2023-05-12T01:30:01.650Z,100716.72
2023-05-12T01:32:28.174Z,100698.19
2023-05-12T01:34:54.557Z,100627.75
2023-05-12T01:37:21.033Z,100660.16
2023-05-12T01:39:47.619Z,100675.53
2023-05-12T01:42:14.010Z,100703.25
2023-05-12T01:44:40.765Z,100723.22
2023-05-12T01:47:09.842Z,100641.13
2023-05-12T01:49:36.399Z,100641.19
2023-05-12T01:52:02.955Z,100704.84
2023-05-12T01:54:29.633Z,100640.19
2023-05-12T01:56:56.108Z,100703.00
2023-05-12T01:59:22.604Z,100609.13
2023-05-12T02:01:49.111Z,100701.41
2023-05-12T02:04:15.524Z,100682.28
2023-05-12T02:06:41.904Z,100641.19
2023-05-12T02:09:08.252Z,100703.69
2023-05-12T02:11:34.598Z,100672.31
2023-05-12T02:14:00.970Z,100650.84
2023-05-12T02:16:27.356Z,100670.59
2023-05-12T02:18:53.885Z,100638.78
2023-05-12T02:21:20.334Z,100689.41
2023-05-12T02:23:46.912Z,100650.53
2023-05-12T02:26:13.517Z,100675.84
2023-05-12T02:28:39.837Z,100689.84
2023-05-12T02:31:06.262Z,100698.44
2023-05-12T02:33:32.624Z,100669.25
2023-05-12T02:35:59.096Z,100643.44
2023-05-12T02:38:25.695Z,100624.31
2023-05-12T02:40:52.109Z,100659.81
2023-05-12T02:43:18.519Z,100628.84
2023-05-12T02:45:44.888Z,100662.00
2023-05-12T02:48:11.392Z,100672.41
2023-05-12T02:50:37.739Z,100632.78
2023-05-12T02:53:04.477Z,100636.22
2023-05-12T02:55:30.853Z,100668.75
2023-05-12T02:57:57.284Z,100665.44
2023-05-12T03:00:23.716Z,100618.72
2023-05-12T03:02:52.380Z,100662.31
2023-05-12T03:05:18.907Z,100655.47
2023-05-12T03:07:45.447Z,100585.97
2023-05-12T03:10:11.805Z,100594.50
2023-05-12T03:12:38.132Z,100634.63
2023-05-12T03:15:04.864Z,100599.75
2023-05-12T03:17:31.395Z,100623.19
2023-05-12T03:19:57.783Z,100583.69
2023-05-12T03:22:24.278Z,100621.00
2023-05-12T03:24:51.671Z,100645.28
2023-05-12T03:27:18.078Z,100631.31
2023-05-12T03:29:44.443Z,100629.59
2023-05-12T03:32:11.967Z,100571.22
2023-05-12T03:34:38.293Z,100641.72
2023-05-12T03:37:04.839Z,100642.00
2023-05-12T03:39:31.187Z,100574.03
2023-05-12T03:41:57.505Z,100576.47
2023-05-12T03:44:23.928Z,100618.88
2023-05-12T03:46:50.448Z,100641.22
2023-05-12T03:49:17.092Z,100623.03
2023-05-12T03:51:43.431Z,100635.19
2023-05-12T03:54:09.812Z,100639.44
2023-05-12T03:56:36.426Z,100635.75
2023-05-12T03:59:03.986Z,100608.41
2023-05-12T04:01:30.490Z,100634.75
2023-05-12T04:03:56.962Z,100529.06
2023-05-12T04:06:23.358Z,100634.97
2023-05-12T04:08:49.662Z,100639.44
2023-05-12T04:11:16.009Z,100583.56
2023-05-12T04:13:42.332Z,100613.56
2023-05-12T04:16:08.727Z,100608.69
2023-05-12T04:18:36.592Z,100599.19
2023-05-12T04:21:03.269Z,100618.16
2023-05-12T04:23:29.600Z,100616.44
2023-05-12T04:25:56.387Z,100635.56
2023-05-12T04:28:22.876Z,100663.13
2023-05-12T04:30:49.277Z,100642.28
2023-05-12T04:33:15.669Z,100657.53
2023-05-12T04:35:42.020Z,100667.72
2023-05-12T04:38:08.428Z,100653.84
2023-05-12T04:40:35.203Z,100644.81
2023-05-12T04:43:01.725Z,100613.69
2023-05-12T04:45:28.128Z,100677.22
2023-05-12T04:47:54.512Z,100637.75
2023-05-12T04:50:21.134Z,100618.81
2023-05-12T04:52:47.518Z,100692.59
2023-05-12T04:55:13.894Z,100706.44
2023-05-12T04:57:41.356Z,100668.53
2023-05-12T05:00:09.038Z,100683.06
2023-05-12T05:02:35.716Z,100679.06
2023-05-12T05:05:02.228Z,100593.44
2023-05-12T05:07:28.606Z,100695.09
2023-05-12T05:09:55.001Z,100632.50
2023-05-12T05:12:21.384Z,100702.00
2023-05-12T05:14:48.038Z,100631.63
2023-05-12T05:17:14.688Z,100677.34
2023-05-12T05:19:54.836Z,100673.44
2023-05-12T05:22:25.074Z,100737.00
2023-05-12T05:24:51.813Z,100743.63
2023-05-12T05:27:18.316Z,100677.47
2023-05-12T05:29:44.670Z,100659.34
2023-05-12T05:32:11.297Z,100689.03
2023-05-12T05:34:37.847Z,100739.94
2023-05-12T05:37:04.375Z,100718.31
2023-05-12T05:39:30.922Z,100758.59
2023-05-12T05:41:57.951Z,100691.56
2023-05-12T05:44:25.094Z,100729.13
2023-05-12T05:46:51.811Z,100763.66
2023-05-12T05:49:18.529Z,100749.88
2023-05-12T05:51:44.903Z,100708.56
2023-05-12T05:54:11.935Z,100755.38
2023-05-12T05:56:38.274Z,100751.66
2023-05-12T05:59:05.087Z,100735.56
2023-05-12T06:01:32.376Z,100769.66
2023-05-12T06:03:59.165Z,100781.69
2023-05-12T06:06:25.692Z,100702.31
2023-05-12T06:08:52.054Z,100758.66
2023-05-12T06:11:18.413Z,100777.56
2023-05-12T06:13:44.733Z,100728.31
2023-05-12T06:16:11.287Z,100760.69
2023-05-12T06:18:38.208Z,100793.84
2023-05-12T06:21:05.465Z,100723.41
2023-05-12T06:23:31.963Z,100751.50
2023-05-12T06:25:58.380Z,100790.28
2023-05-12T06:28:24.759Z,100736.75
2023-05-12T06:30:51.198Z,100774.69
2023-05-12T06:33:17.591Z,100809.78
2023-05-12T06:35:43.973Z,100735.66
2023-05-12T06:38:10.456Z,100811.53
2023-05-12T06:40:36.868Z,100751.41
2023-05-12T06:43:03.223Z,100811.47
2023-05-12T06:45:30.131Z,100763.31
2023-05-12T06:47:57.570Z,100793.94
2023-05-12T06:50:24.051Z,100810.59
2023-05-12T06:52:50.760Z,100813.44
2023-05-12T06:55:19.965Z,100820.34
2023-05-12T06:57:46.652Z,100809.34
2023-05-12T07:00:13.805Z,100760.81
2023-05-12T07:02:40.291Z,100817.47
2023-05-12T07:05:06.878Z,100769.19
2023-05-12T07:07:33.309Z,100776.41
2023-05-12T07:09:59.644Z,100767.94
2023-05-12T07:12:26.070Z,100785.38
2023-05-12T07:14:52.422Z,100778.13
2023-05-12T07:17:18.769Z,100776.69
2023-05-12T07:19:45.097Z,100821.16
2023-05-12T07:22:11.478Z,100834.41
2023-05-12T07:24:38.496Z,100768.09
2023-05-12T07:27:05.703Z,100787.56
2023-05-12T07:29:32.070Z,100836.53
2023-05-12T07:31:58.628Z,100830.34
2023-05-12T07:34:25.054Z,100824.22
2023-05-12T07:36:51.413Z,100830.22
2023-05-12T07:39:23.580Z,100793.63
2023-05-12T07:41:50.883Z,100821.38
2023-05-12T07:44:17.295Z,100828.66
2023-05-12T07:46:43.849Z,100857.19
2023-05-12T07:49:10.264Z,100822.88
2023-05-12T07:51:36.769Z,100845.78
2023-05-12T07:54:03.151Z,100842.22
2023-05-12T07:56:29.482Z,100844.41
2023-05-12T07:58:56.174Z,100843.41
2023-05-12T08:01:22.722Z,100855.97
2023-05-12T08:03:51.779Z,100864.69
2023-05-12T08:06:18.673Z,100792.03
2023-05-12T08:08:45.218Z,100859.63
2023-05-12T08:11:12.563Z,100866.16
2023-05-12T08:13:39.634Z,100877.66
2023-05-12T08:16:06.212Z,100807.25
2023-05-12T08:18:32.662Z,100811.59
2023-05-12T08:20:59.025Z,100875.00
2023-05-12T08:23:25.613Z,100801.47
2023-05-12T08:25:54.415Z,100886.88
2023-05-12T08:28:21.176Z,100794.06
2023-05-12T08:30:47.682Z,100802.03
2023-05-12T08:33:16.714Z,100794.75
2023-05-12T08:35:45.254Z,100871.50
2023-05-12T08:38:14.728Z,100867.63
2023-05-12T08:40:55.825Z,100895.47
2023-05-12T08:43:31.531Z,100833.56
2023-05-12T08:45:58.459Z,100884.44
2023-05-12T08:48:32.075Z,100755.09
2023-05-12T08:50:59.289Z,100898.97
2023-05-12T08:53:27.828Z,100812.66
2023-05-12T08:57:09.477Z,100918.28
2023-05-12T08:58:42.857Z,100897.25
2023-05-12T09:01:11.879Z,100882.66
2023-05-12T09:03:38.955Z,100908.25
2023-05-12T09:06:06.530Z,100892.34
2023-05-12T09:08:34.779Z,100919.84
2023-05-12T09:11:02.018Z,100893.09
2023-05-12T09:13:38.447Z,100918.25
2023-05-12T09:16:12.665Z,100791.81
2023-05-12T09:18:52.770Z,100834.13
2023-05-12T09:21:19.675Z,100871.66
2023-05-12T09:23:57.249Z,100938.84
2023-05-12T09:26:59.178Z,100905.47
2023-05-12T09:29:31.677Z,100890.16
2023-05-12T09:32:02.141Z,100934.31
2023-05-12T09:34:30.978Z,100901.00
2023-05-12T09:36:59.935Z,100929.97
2023-05-12T09:39:26.703Z,100820.94
2023-05-12T09:41:53.826Z,100889.69
2023-05-12T09:44:21.132Z,100916.47
2023-05-12T09:46:48.556Z,100937.72
2023-05-12T09:49:20.131Z,100915.44
2023-05-12T09:51:46.835Z,100933.81
2023-05-12T09:54:13.875Z,100890.00
2023-05-12T09:56:40.827Z,100872.38
2023-05-12T09:59:10.258Z,100871.88
2023-05-12T10:01:37.081Z,100833.66
2023-05-12T10:04:07.458Z,100918.59
2023-05-12T10:06:40.749Z,100907.72
2023-05-12T10:09:20.576Z,100929.16
2023-05-12T10:11:47.759Z,100840.63
2023-05-12T10:14:16.739Z,100941.44
2023-05-12T10:16:46.178Z,100962.53
2023-05-12T10:19:13.980Z,100901.31
2023-05-12T10:21:43.501Z,100955.00
2023-05-12T10:24:10.279Z,100880.56
2023-05-12T10:26:37.538Z,100928.53
2023-05-12T10:29:04.042Z,100948.72
2023-05-12T10:31:30.736Z,100864.97
2023-05-12T10:34:01.103Z,100955.94
2023-05-12T10:36:27.841Z,100883.75
2023-05-12T10:38:55.028Z,100945.03
2023-05-12T10:41:32.210Z,100950.81
2023-05-12T10:43:59.058Z,100958.34
2023-05-12T10:46:27.128Z,100956.28
2023-05-12T10:49:07.560Z,100950.38
2023-05-12T10:51:46.020Z,100943.78
2023-05-12T10:54:20.186Z,100866.78
2023-05-12T10:56:47.426Z,100919.34
2023-05-12T10:59:17.829Z,100943.00
2023-05-12T11:01:59.236Z,100912.06
2023-05-12T11:04:42.015Z,100941.44
2023-05-12T11:07:14.262Z,100928.16
2023-05-12T11:09:56.791Z,100933.22
2023-05-12T11:12:33.795Z,100870.25
2023-05-12T11:15:02.613Z,100940.41
2023-05-12T11:17:29.426Z,100906.56
2023-05-12T11:19:56.353Z,100902.69
2023-05-12T11:22:23.718Z,100900.41
2023-05-12T11:24:51.170Z,100824.84
2023-05-12T11:27:19.413Z,100969.75
2023-05-12T11:29:59.565Z,100956.13
2023-05-12T11:32:26.485Z,100953.13
2023-05-12T11:34:53.062Z,100942.22
2023-05-12T11:37:21.158Z,100932.16
2023-05-12T11:39:48.096Z,100961.25
2023-05-12T11:42:16.302Z,100958.72
2023-05-12T11:44:49.412Z,100965.09
2023-05-12T11:47:19.650Z,100926.97
2023-05-12T11:49:56.752Z,100855.22
2023-05-12T11:52:24.692Z,100862.28
2023-05-12T11:54:52.818Z,100986.56
2023-05-12T11:57:27.592Z,100915.66
2023-05-12T12:00:06.831Z,100975.81
2023-05-12T12:02:37.336Z,100912.59
2023-05-12T12:05:08.546Z,100866.66
2023-05-12T12:07:36.638Z,100961.09
2023-05-12T12:10:13.178Z,100971.31
2023-05-12T12:12:43.347Z,100932.50
2023-05-12T12:15:10.555Z,100894.03
2023-05-12T12:17:37.223Z,100977.75
2023-05-12T12:20:04.076Z,100872.56
2023-05-12T12:22:34.104Z,100903.63
2023-05-12T12:25:01.676Z,100905.88
2023-05-12T12:27:28.192Z,100973.16
2023-05-12T12:29:54.620Z,100895.09
2023-05-12T12:32:21.089Z,100980.63
2023-05-12T12:34:48.843Z,100963.38
2023-05-12T12:37:15.566Z,100978.97
2023-05-12T12:39:41.958Z,100970.34
2023-05-12T12:42:08.723Z,100979.16
2023-05-12T12:44:35.441Z,100989.06
2023-05-12T12:47:01.951Z,100982.16
2023-05-12T12:49:28.389Z,100944.94
2023-05-12T12:51:55.416Z,100953.41
2023-05-12T12:54:21.811Z,100855.44
2023-05-12T12:56:48.262Z,100890.16
2023-05-12T12:59:14.968Z,100885.88
2023-05-12T13:01:41.367Z,100989.41
2023-05-12T13:04:07.791Z,100824.75
2023-05-12T13:06:34.587Z,100987.00
2023-05-12T13:09:03.055Z,100964.06
2023-05-12T13:11:29.562Z,100908.28
2023-05-12T13:13:58.381Z,100949.28
2023-05-12T13:16:24.749Z,101006.50
2023-05-12T13:18:51.201Z,100859.16
2023-05-12T13:21:18.660Z,100984.63
2023-05-12T13:23:45.232Z,100993.94
2023-05-12T13:26:14.458Z,100988.50
2023-05-12T13:28:40.927Z,100973.31
2023-05-12T13:31:07.509Z,100997.97
2023-05-12T13:33:34.027Z,100998.91
2023-05-12T13:36:00.517Z,100884.50
2023-05-12T13:38:26.907Z,100903.56
2023-05-12T13:40:53.457Z,100872.91
2023-05-12T13:43:19.862Z,100979.03
2023-05-12T13:45:49.181Z,100973.97
2023-05-12T13:48:15.576Z,100878.31
2023-05-12T13:50:42.158Z,100943.31
2023-05-12T13:53:09.630Z,100868.63
2023-05-12T13:55:40.655Z,100965.44
2023-05-12T13:58:07.364Z,100845.78
2023-05-12T14:00:33.794Z,100874.25
2023-05-12T14:03:00.267Z,100895.66
2023-05-12T14:05:27.366Z,100869.34
2023-05-12T14:07:53.768Z,100952.06
2023-05-12T14:10:20.112Z,100892.84
2023-05-12T14:12:46.741Z,100962.03
2023-05-12T14:17:45.643Z,100886.00
2023-05-12T14:20:15.142Z,100901.81
2023-05-12T14:22:42.061Z,100955.44
2023-05-12T14:25:08.781Z,100883.72
2023-05-12T14:27:35.259Z,100946.34
2023-05-12T14:30:02.143Z,100981.63
2023-05-12T14:32:28.729Z,100873.41
2023-05-12T14:34:55.111Z,100947.25
2023-05-12T14:37:21.635Z,100918.47
2023-05-12T14:39:47.977Z,100977.41
2023-05-12T14:42:14.406Z,100949.44
2023-05-12T14:44:40.768Z,100901.13
2023-05-12T14:47:09.117Z,100986.53
2023-05-12T14:49:35.664Z,100969.59
2023-05-12T14:52:02.386Z,100903.13
2023-05-12T14:54:28.780Z,100967.50
2023-05-12T14:56:55.213Z,100929.63
2023-05-12T14:59:21.733Z,100972.34
2023-05-12T15:01:48.124Z,100959.97
2023-05-12T15:04:14.534Z,100896.22
2023-05-12T15:06:40.884Z,100980.41
2023-05-12T15:09:07.355Z,101002.91
2023-05-12T15:11:34.198Z,100982.50
2023-05-12T15:14:00.598Z,100890.03
2023-05-12T15:16:28.152Z,100957.09
2023-05-12T15:18:54.686Z,100999.44
2023-05-12T15:21:21.144Z,100919.88
2023-05-12T15:23:47.592Z,100910.47
2023-05-12T15:26:31.446Z,101013.34
2023-05-12T15:28:59.879Z,100938.91
2023-05-12T15:31:28.895Z,100906.09
2023-05-12T15:33:56.630Z,101003.22
2023-05-12T15:36:23.232Z,100925.38
2023-05-12T15:38:49.702Z,100852.56
2023-05-12T15:41:16.109Z,100980.63
2023-05-12T15:43:42.485Z,100896.06
2023-05-12T15:46:10.849Z,100968.59
2023-05-12T15:48:37.490Z,100943.13
2023-05-12T15:51:04.261Z,100928.81
2023-05-12T15:53:31.328Z,100940.03
2023-05-12T15:56:01.954Z,100935.63
2023-05-12T15:58:28.895Z,101001.53
2023-05-12T16:00:56.096Z,101003.34
2023-05-12T16:03:23.435Z,100921.00
2023-05-12T16:05:50.576Z,100928.38
2023-05-12T16:08:17.122Z,100887.47
2023-05-12T16:10:45.868Z,100971.22
2023-05-12T16:18:07.567Z,101016.84
2023-05-12T16:20:41.883Z,101020.44
2023-05-12T16:25:54.841Z,100990.94
2023-05-12T16:28:24.664Z,100953.81
2023-05-12T16:30:51.047Z,100897.81
2023-05-12T16:33:17.478Z,100919.94
2023-05-12T16:35:44.042Z,100894.22
2023-05-12T16:38:15.936Z,101027.97
2023-05-12T16:40:42.530Z,100886.66
2023-05-12T16:43:08.986Z,100916.78
2023-05-12T16:45:35.444Z,100905.53
2023-05-12T16:48:02.026Z,100871.88
2023-05-12T16:50:28.403Z,100921.91
2023-05-12T16:52:54.931Z,100883.66
2023-05-12T16:55:21.801Z,100878.50
2023-05-12T16:57:48.461Z,101010.41
2023-05-12T17:00:15.377Z,100998.47
2023-05-12T17:02:42.559Z,100968.38
2023-05-12T17:05:09.134Z,100908.50
2023-05-12T17:07:35.591Z,101009.22
2023-05-12T17:10:03.011Z,101007.91
2023-05-12T17:12:29.499Z,101032.69
2023-05-12T17:15:03.837Z,101024.31
2023-05-12T17:17:34.030Z,100951.00
2023-05-12T17:20:00.707Z,100932.00
2023-05-12T17:22:28.039Z,100985.72
2023-05-12T17:24:54.759Z,101044.09
2023-05-12T17:27:21.434Z,101003.66
2023-05-12T17:29:47.800Z,101030.78
2023-05-12T17:32:14.188Z,101008.69
2023-05-12T17:34:40.526Z,101029.28
2023-05-12T17:37:07.459Z,101023.94
2023-05-12T17:39:34.184Z,100948.66
2023-05-12T17:42:00.492Z,101055.53
2023-05-12T17:44:26.893Z,101045.44
2023-05-12T17:46:53.463Z,101003.09
2023-05-12T17:49:19.923Z,101046.09
2023-05-12T17:51:46.862Z,101056.25
2023-05-12T17:54:13.390Z,101047.13
2023-05-12T17:56:39.694Z,100981.94
2023-05-12T17:59:06.189Z,101038.72
2023-05-12T18:01:32.865Z,100959.63
2023-05-12T18:03:59.408Z,101044.06
2023-05-12T18:06:26.042Z,101044.56
2023-05-12T18:08:52.385Z,101053.13
2023-05-12T18:11:18.741Z,101040.59
2023-05-12T18:13:45.256Z,101072.91
2023-05-12T18:16:24.997Z,101077.66
2023-05-12T18:18:54.751Z,101067.69
2023-05-12T18:21:21.154Z,101019.81
2023-05-12T18:23:47.503Z,101043.31
2023-05-12T18:26:13.865Z,101062.84
2023-05-12T18:28:40.694Z,101059.75
2023-05-12T18:31:15.932Z,101079.22
2023-05-12T18:33:46.918Z,101098.53
2023-05-12T18:36:13.513Z,100999.09
2023-05-12T18:38:40.050Z,100973.47
2023-05-12T18:41:07.211Z,101013.47
2023-05-12T18:43:34.811Z,101053.59
2023-05-12T18:46:01.602Z,101075.38
2023-05-12T18:48:28.253Z,101100.06
2023-05-12T18:50:56.084Z,101054.16
2023-05-12T18:53:23.111Z,101074.22
2023-05-12T18:55:50.178Z,101076.06
2023-05-12T18:58:16.956Z,101003.34
2023-05-12T19:00:44.116Z,100996.38
2023-05-12T19:03:10.962Z,101114.50
2023-05-12T19:05:37.797Z,101106.06
2023-05-12T19:08:04.364Z,101100.53
2023-05-12T19:10:30.812Z,101116.25
2023-05-12T19:12:57.377Z,101076.06
2023-05-12T19:15:23.936Z,101111.19
2023-05-12T19:17:50.626Z,101028.97
2023-05-12T19:20:17.346Z,101074.38
2023-05-12T19:22:44.728Z,101096.59
2023-05-12T19:25:11.868Z,101117.53
2023-05-12T19:27:38.248Z,101135.72
2023-05-12T19:30:05.409Z,101130.56
2023-05-12T19:32:32.857Z,100970.06
2023-05-12T19:35:00.914Z,101076.53
2023-05-12T19:37:27.554Z,101126.97
2023-05-12T19:39:54.071Z,101036.50
2023-05-12T19:42:21.363Z,101145.94
2023-05-12T19:44:47.744Z,101139.72
2023-05-12T19:47:14.177Z,101135.72
2023-05-12T19:49:40.546Z,101133.28
2023-05-12T19:52:07.163Z,100962.25
2023-05-12T19:54:33.582Z,101122.50
2023-05-12T19:56:59.957Z,101113.44
2023-05-12T19:59:26.792Z,101131.91
2023-05-12T20:01:53.144Z,101131.25
2023-05-12T20:04:19.601Z,101148.22
2023-05-12T20:06:46.087Z,101115.78
2023-05-12T20:09:12.473Z,101153.59
2023-05-12T20:11:38.828Z,101115.59
2023-05-12T20:14:05.244Z,101064.78
2023-05-12T20:16:31.609Z,101172.97
2023-05-12T20:19:02.895Z,101152.97
2023-05-12T20:21:31.160Z,101080.91
2023-05-12T20:23:57.531Z,101177.34
2023-05-12T20:26:24.512Z,101149.91
2023-05-12T20:28:53.641Z,101183.16
2023-05-12T20:31:20.164Z,101159.19
2023-05-12T20:33:46.566Z,101159.56
2023-05-12T20:36:12.896Z,101088.03
2023-05-12T20:38:39.673Z,101210.13
2023-05-12T20:41:07.120Z,101163.13
2023-05-12T20:43:33.765Z,101198.22
2023-05-12T20:46:03.228Z,101184.63
2023-05-12T20:48:29.922Z,101166.59
2023-05-12T20:50:56.466Z,101198.09
2023-05-12T20:53:23.266Z,101205.13
2023-05-12T20:55:49.697Z,101129.94
2023-05-12T20:58:16.155Z,101194.53
2023-05-12T21:00:42.531Z,101167.84
2023-05-12T21:03:14.160Z,101175.34
2023-05-12T21:05:42.331Z,101187.94
2023-05-12T21:08:08.769Z,101138.34
2023-05-12T21:10:39.201Z,101032.22
2023-05-12T21:13:05.722Z,101150.22
2023-05-12T21:15:32.084Z,101138.44
2023-05-12T21:17:58.792Z,101210.31
2023-05-12T21:20:25.205Z,101100.16
2023-05-12T21:22:51.570Z,101138.53
2023-05-12T21:25:18.000Z,101221.28
2023-05-12T21:27:45.712Z,101052.34
2023-05-12T21:30:12.309Z,101212.53
2023-05-12T21:32:39.646Z,101228.19
2023-05-12T21:35:07.321Z,101185.25
2023-05-12T21:37:34.222Z,101161.69
2023-05-12T21:40:00.695Z,101175.59
2023-05-12T21:42:27.134Z,101248.13
2023-05-12T21:44:53.487Z,101238.09
2023-05-12T21:47:20.143Z,101119.59
2023-05-12T21:49:46.498Z,101177.06
2023-05-12T21:52:13.596Z,101018.41
2023-05-12T21:54:39.981Z,101153.13
2023-05-12T21:57:06.382Z,101205.00
2023-05-12T21:59:32.858Z,101096.94
2023-05-12T22:01:59.531Z,101216.66
2023-05-12T22:04:26.065Z,101051.28
2023-05-12T22:06:52.408Z,101193.28
2023-05-12T22:09:20.251Z,101107.34
2023-05-12T22:11:46.652Z,101077.19
2023-05-12T22:14:13.230Z,101228.06
2023-05-12T22:16:42.156Z,101231.66
2023-05-12T22:19:09.637Z,101247.81
2023-05-12T22:21:36.286Z,101210.81
2023-05-12T22:24:03.058Z,101204.41
2023-05-12T22:26:29.803Z,101235.50
2023-05-12T22:28:56.215Z,101140.13
2023-05-12T22:31:22.657Z,101151.34
2023-05-12T22:33:49.180Z,101210.81
2023-05-12T22:36:15.810Z,101187.25
2023-05-12T22:38:42.146Z,101130.59
2023-05-12T22:41:08.486Z,101072.06
2023-05-12T22:43:34.835Z,101144.50
2023-05-12T22:46:01.182Z,101201.19
2023-05-12T22:48:27.553Z,101220.63
2023-05-12T22:50:54.517Z,101228.19
2023-05-12T22:53:20.916Z,101237.66
2023-05-12T22:55:47.303Z,101134.13
2023-05-12T22:58:14.313Z,101190.97
2023-05-12T23:00:40.768Z,100989.78
2023-05-12T23:03:07.335Z,101184.63
2023-05-12T23:05:33.818Z,101150.91
2023-05-12T23:08:00.380Z,101232.56
2023-05-12T23:10:26.769Z,101232.47
2023-05-12T23:12:53.177Z,101196.44
2023-05-12T23:15:19.684Z,101114.50
2023-05-12T23:17:46.179Z,101193.81
2023-05-12T23:20:12.800Z,101129.34
2023-05-12T23:22:40.226Z,101128.41
2023-05-12T23:25:07.289Z,101207.66
2023-05-12T23:27:33.697Z,101223.28
2023-05-12T23:30:00.180Z,101088.94
2023-05-12T23:32:26.681Z,101224.34
2023-05-12T23:34:53.128Z,101221.88
2023-05-12T23:37:19.561Z,101192.16
2023-05-12T23:39:46.136Z,101028.94
2023-05-12T23:42:12.484Z,101214.38
2023-05-12T23:44:38.895Z,101215.91
2023-05-12T23:47:05.595Z,101218.63
2023-05-12T23:49:32.214Z,101225.34
2023-05-12T23:51:58.532Z,101205.69
2023-05-12T23:54:24.926Z,101203.25
2023-05-12T23:56:51.495Z,101206.06
2023-05-12T23:59:17.963Z,101202.25
